Weather History for KC29 - January, 2014

Change the Weather History Date:

Saturday, January 25, 2014

  Actual Average (KMSN) Record (KMSN)
Temperature  
Mean Temperature 20 °F 19 °F  
Max Temperature 33 °F 27 °F 53 °F (1973)
Min Temperature 6 °F 11 °F -26 °F (1904)
Degree Days  
Heating Degree Days 46 46  
Month to date heating degree days 1159  
Since 1 July heating degree days 4038  
Cooling Degree Days 0 0  
Month to date cooling degree days 0  
Year to date cooling degree days 0  
Moisture  
Dew Point -2 °F    
Average Humidity 47    
Maximum Humidity 87    
Minimum Humidity 35    
Precipitation  
Precipitation 0.00 in 0.04 in 1.04 in (1950)
Month to date precipitation 0.99  
Year to date precipitation 0.99  
Snow  
Snow 0.00 in 0.40 in 9.00 in (1898)
Month to date snowfall 10.4  
Since 1 July snowfall 28.0  
Snow Depth -    
Sea Level Pressure  
Sea Level Pressure 29.64 in    
Wind  
Wind Speed 16 mph (WNW)    
Max Wind Speed 28 mph    
Max Gust Speed 38 mph    
Visibility 10 miles    
Events      
T = Trace of Precipitation, MM = Missing Value Source: NWS Daily Summary

Daily Weather History Graph

Daily Weather History Graph

Search for Another Location

Airport or City:

Trip Planner

Search our weather history database for the weather conditions in past years. The results will help you decide how hot, cold, wet, or windy it might be!

Date:

Astronomy

Jan. 25, 2014 Rise Set
Actual Time 7:20 AM CST 5:01 PM CST
Civil Twilight 6:49 AM CST 5:32 PM CST
Nautical Twilight 6:14 AM CST 6:06 PM CST
Astronomical Twilight 5:41 AM CST 6:40 PM CST
Moon 1:51 AM CST (1/25) 12:02 PM CST (1/25)
Length of Visible Light 10h 42m
Length of Day
9h 41m
Waning Crescent, 34% of the Moon is Illuminated
Jan 25
Waning Crescent
Jan 30
New
Feb 6
First Quarter
Feb 14
Full
Feb 22
Last Quarter

Hourly Weather History & Observations

Time (CST) Temp. Windchill Dew Point Humidity Pressure Visibility Wind Dir Wind Speed Gust Speed Precip Events Conditions
12:15 AM 32.4 °F 22.1 °F 28.8 °F 87% 29.37 in 10.0 mi West 15.0 mph - N/A   Overcast
12:35 AM 32.9 °F 23.7 °F 28.8 °F 85% 29.37 in 10.0 mi West 12.7 mph - N/A   Overcast
12:55 AM 33.1 °F 23.4 °F 28.2 °F 82% 29.37 in 10.0 mi WNW 13.8 mph 19.6 mph N/A   Overcast
1:15 AM 33.3 °F 21.8 °F 25.5 °F 73% 29.39 in 10.0 mi NW 19.6 mph 25.3 mph N/A   Overcast
1:35 AM 31.8 °F 20.6 °F 19.6 °F 61% 29.40 in 5.0 mi NW 17.3 mph 33.4 mph N/A   Mostly Cloudy
1:55 AM 30.7 °F 20.0 °F 17.8 °F 59% 29.41 in 10.0 mi NW 15.0 mph 23.0 mph N/A   Clear
2:15 AM 31.1 °F 21.4 °F 18.0 °F 58% 29.40 in 10.0 mi NW 12.7 mph 17.3 mph N/A   Mostly Cloudy
2:35 AM 30.2 °F 22.6 °F 17.6 °F 60% 29.40 in 10.0 mi WNW 8.1 mph - N/A   Scattered Clouds
2:55 AM 30.9 °F 18.4 °F 16.5 °F 55% 29.40 in 10.0 mi WNW 20.7 mph 25.3 mph N/A   Clear
3:15 AM 30.6 °F 20.7 °F 15.4 °F 54% 29.41 in 10.0 mi WNW 12.7 mph 18.4 mph N/A   Clear
3:35 AM 29.8 °F 18.4 °F 13.6 °F 51% 29.41 in 10.0 mi WNW 16.1 mph 20.7 mph N/A   Scattered Clouds
3:55 AM 28.9 °F 16.1 °F 12.2 °F 50% 29.42 in 10.0 mi NW 19.6 mph 29.9 mph N/A   Scattered Clouds
4:15 AM 27.5 °F 13.5 °F 9.9 °F 48% 29.43 in 10.0 mi NW 21.9 mph 29.9 mph N/A   Clear
4:35 AM 24.6 °F 9.7 °F 5.2 °F 44% 29.44 in 10.0 mi NNW 21.9 mph 32.2 mph N/A   Clear
4:55 AM 23.2 °F 7.5 °F 0.5 °F 37% 29.45 in 10.0 mi NW 23.0 mph 29.9 mph N/A   Clear
5:15 AM 22.1 °F 8.5 °F 0.5 °F 39% 29.47 in 10.0 mi NW 16.1 mph 26.5 mph N/A   Clear
5:35 AM 21.7 °F 7.5 °F 0.7 °F 40% 29.47 in 10.0 mi NW 17.3 mph 21.9 mph N/A   Clear
5:55 AM 21.0 °F 6.6 °F 1.0 °F 42% 29.48 in 10.0 mi NW 17.3 mph 24.2 mph N/A   Clear
6:15 AM 20.3 °F 5.2 °F -1.8 °F 38% 29.49 in 10.0 mi NW 18.4 mph 25.3 mph N/A   Clear
6:35 AM 19.2 °F 3.4 °F -1.1 °F 41% 29.51 in 10.0 mi NW 19.6 mph 28.8 mph N/A   Clear
6:55 AM 17.6 °F 0.5 °F -3.3 °F 40% 29.52 in 10.0 mi NW 21.9 mph 33.4 mph N/A   Clear
7:15 AM 16.3 °F -2.0 °F -3.5 °F 42% 29.54 in 7.0 mi NW 24.2 mph 33.4 mph N/A   Clear
7:35 AM 15.6 °F -1.3 °F -4.2 °F 41% 29.57 in 10.0 mi NW 19.6 mph 28.8 mph N/A   Clear
7:55 AM 13.6 °F -6.3 °F -3.8 °F 46% 29.60 in 3.0 mi NNW 26.5 mph 38.0 mph N/A   Clear
8:15 AM 12.4 °F -8.3 °F -6.7 °F 42% 29.61 in 2.0 mi NW 27.6 mph 38.0 mph N/A   Clear
8:35 AM 12.2 °F -6.7 °F -7.4 °F 41% 29.62 in 7.0 mi NNW 21.9 mph 28.8 mph N/A   Clear
8:55 AM 12.2 °F -5.8 °F -7.6 °F 41% 29.63 in 10.0 mi NNW 19.6 mph 27.6 mph N/A   Clear
9:15 AM 11.8 °F -7.2 °F -6.5 °F 44% 29.63 in 10.0 mi NW 21.9 mph 33.4 mph N/A   Clear
9:35 AM 10.9 °F -9.6 °F -6.3 °F 46% 29.65 in 7.0 mi NW 25.3 mph 32.2 mph N/A   Clear
9:55 AM 10.4 °F -9.1 °F -7.1 °F 45% 29.67 in 7.0 mi NW 21.9 mph 34.5 mph N/A   Clear
10:15 AM 10.4 °F -9.1 °F -8.1 °F 43% 29.68 in 7.0 mi NW 21.9 mph 32.2 mph N/A   Clear
10:35 AM 10.9 °F -7.5 °F -9.6 °F 39% 29.70 in 7.0 mi NW 19.6 mph 31.1 mph N/A   Clear
10:55 AM 11.7 °F -7.8 °F -9.4 °F 38% 29.70 in 10.0 mi NW 23.0 mph 28.8 mph N/A   Clear
11:15 AM 12.0 °F -5.6 °F -9.4 °F 38% 29.70 in 10.0 mi NW 18.4 mph 25.3 mph N/A   Clear
11:35 AM 12.7 °F -4.6 °F -9.2 °F 37% 29.70 in 10.0 mi NW 18.4 mph - N/A   Clear
11:55 AM 12.2 °F -3.1 °F -9.4 °F 38% 29.71 in 10.0 mi NW 13.8 mph 27.6 mph N/A   Clear
12:15 PM 12.0 °F -5.1 °F -9.0 °F 39% 29.71 in 10.0 mi NW 17.3 mph 31.1 mph N/A   Clear
12:35 PM 12.7 °F -5.1 °F -8.9 °F 38% 29.71 in 10.0 mi WNW 19.6 mph 26.5 mph N/A   Clear
12:55 PM 12.9 °F -3.9 °F -8.9 °F 37% 29.71 in 10.0 mi WNW 17.3 mph 20.7 mph N/A   Clear
1:15 PM 13.1 °F -2.6 °F -9.4 °F 36% 29.71 in 10.0 mi NW 15.0 mph 24.2 mph N/A   Clear
1:35 PM 13.5 °F -4.6 °F -9.8 °F 35% 29.71 in 10.0 mi WNW 20.7 mph 25.3 mph N/A   Clear
1:55 PM 13.3 °F -1.8 °F -8.5 °F 37% 29.72 in 10.0 mi NW 13.8 mph 21.9 mph N/A   Clear
2:15 PM 13.8 °F -3.7 °F -9.2 °F 35% 29.72 in 10.0 mi WNW 19.6 mph 25.3 mph N/A   Clear
2:35 PM 13.6 °F -1.3 °F -8.9 °F 36% 29.73 in 10.0 mi WNW 13.8 mph 24.2 mph N/A   Clear
2:55 PM 13.5 °F -4.2 °F -9.0 °F 36% 29.73 in 10.0 mi WNW 19.6 mph 23.0 mph N/A   Clear
3:15 PM 13.1 °F -3.7 °F -9.0 °F 37% 29.73 in 10.0 mi WNW 17.3 mph 25.3 mph N/A   Clear
3:35 PM 12.6 °F -3.8 °F -9.0 °F 38% 29.75 in 10.0 mi WNW 16.1 mph 24.2 mph N/A   Clear
3:55 PM 12.2 °F -4.3 °F -9.0 °F 38% 29.75 in 10.0 mi WNW 16.1 mph 26.5 mph N/A   Clear
4:15 PM 12.2 °F -3.7 °F -10.1 °F 36% 29.75 in 10.0 mi WNW 15.0 mph 19.6 mph N/A   Clear
4:35 PM 11.8 °F -2.3 °F -9.6 °F 38% 29.76 in 10.0 mi WNW 11.5 mph 20.7 mph N/A   Clear
4:55 PM 10.4 °F -3.3 °F -7.8 °F 44% 29.76 in 10.0 mi West 10.4 mph - N/A   Clear
5:15 PM 10.4 °F -4.1 °F -10.5 °F 39% 29.77 in 10.0 mi WNW 11.5 mph 21.9 mph N/A   Clear
5:35 PM 9.0 °F -7.9 °F -7.8 °F 47% 29.79 in 10.0 mi West 15.0 mph - N/A   Clear
5:55 PM 8.6 °F -7.0 °F -8.0 °F 47% 29.80 in 10.0 mi West 12.7 mph - N/A   Clear
6:15 PM 8.2 °F -6.0 °F -8.5 °F 47% 29.80 in 10.0 mi West 10.4 mph - N/A   Clear
6:35 PM 7.7 °F -9.5 °F -8.3 °F 48% 29.81 in 10.0 mi West 15.0 mph 20.7 mph N/A   Clear
6:55 PM 7.5 °F -9.1 °F -8.5 °F 48% 29.80 in 10.0 mi West 13.8 mph - N/A   Clear
7:15 PM 7.3 °F -8.6 °F -8.9 °F 48% 29.81 in 10.0 mi West 12.7 mph - N/A   Clear
7:35 PM 7.0 °F -7.5 °F -8.7 °F 49% 29.82 in 10.0 mi West 10.4 mph 16.1 mph N/A   Clear
7:55 PM 6.6 °F -5.0 °F -8.1 °F 51% 29.81 in 10.0 mi West 6.9 mph - N/A   Clear
8:15 PM 6.8 °F -7.8 °F -8.1 °F 51% 29.80 in 10.0 mi West 10.4 mph - N/A   Clear
8:35 PM 6.4 °F -6.3 °F -8.0 °F 52% 29.79 in 10.0 mi West 8.1 mph - N/A   Clear
8:55 PM 6.1 °F -7.8 °F -8.0 °F 53% 29.79 in 10.0 mi WNW 9.2 mph - N/A   Clear
9:15 PM 6.6 °F -6.1 °F -7.8 °F 52% 29.78 in 10.0 mi West 8.1 mph - N/A   Clear
9:35 PM 6.8 °F -6.9 °F -6.7 °F 54% 29.78 in 10.0 mi West 9.2 mph - N/A   Mostly Cloudy
9:55 PM 6.8 °F -2.0 °F -7.1 °F 53% 29.77 in 10.0 mi WSW 4.6 mph - N/A   Overcast
10:15 PM 6.8 °F -4.8 °F -6.7 °F 54% 29.78 in 10.0 mi West 6.9 mph - N/A   Overcast
10:35 PM 7.2 °F - -6.5 °F 54% 29.76 in 10.0 mi Calm Calm - N/A   Overcast
10:55 PM 7.3 °F 0.5 °F -6.7 °F 53% 29.73 in 10.0 mi SSE 3.5 mph - N/A   Overcast
11:15 PM 7.3 °F 0.5 °F -6.9 °F 52% 29.71 in 10.0 mi SW 3.5 mph - N/A   Overcast
11:35 PM 7.3 °F -1.3 °F -6.9 °F 52% 29.69 in 10.0 mi South 4.6 mph - N/A   Overcast
11:55 PM 7.5 °F -2.6 °F -6.9 °F 52% 29.67 in 10.0 mi South 5.8 mph - N/A   Overcast